sensor_id;sensor_type;location;lat;lon;timestamp;P1;durP1;ratioP1;P2;durP2;ratioP2
12687;SDS011;6408;59.388;17.798;2022-11-21T00:01:13;2.07;;;1.60;;
12687;SDS011;6408;59.388;17.798;2022-11-21T00:03:43;2.33;;;2.00;;
12687;SDS011;6408;59.388;17.798;2022-11-21T00:06:10;3.37;;;2.60;;
12687;SDS011;6408;59.388;17.798;2022-11-21T00:08:37;4.17;;;2.70;;
12687;SDS011;6408;59.388;17.798;2022-11-21T00:11:04;4.00;;;2.77;;
12687;SDS011;6408;59.388;17.798;2022-11-21T00:13:32;4.13;;;3.10;;
12687;SDS011;6408;59.388;17.798;2022-11-21T00:16:01;4.53;;;2.73;;
12687;SDS011;6408;59.388;17.798;2022-11-21T00:18:29;3.43;;;2.83;;
12687;SDS011;6408;59.388;17.798;2022-11-21T00:21:01;3.50;;;2.77;;
12687;SDS011;6408;59.388;17.798;2022-11-21T00:23:30;3.20;;;2.50;;
12687;SDS011;6408;59.388;17.798;2022-11-21T00:25:57;5.07;;;2.80;;
12687;SDS011;6408;59.388;17.798;2022-11-21T00:28:24;4.83;;;3.30;;
12687;SDS011;6408;59.388;17.798;2022-11-21T00:30:51;4.43;;;2.63;;
12687;SDS011;6408;59.388;17.798;2022-11-21T00:33:18;4.30;;;2.80;;
12687;SDS011;6408;59.388;17.798;2022-11-21T00:35:45;3.07;;;2.70;;
12687;SDS011;6408;59.388;17.798;2022-11-21T00:38:14;3.93;;;2.83;;
12687;SDS011;6408;59.388;17.798;2022-11-21T00:40:41;4.50;;;3.20;;
12687;SDS011;6408;59.388;17.798;2022-11-21T00:43:09;4.37;;;2.57;;
12687;SDS011;6408;59.388;17.798;2022-11-21T00:45:36;4.47;;;3.00;;
12687;SDS011;6408;59.388;17.798;2022-11-21T00:48:05;4.23;;;2.90;;
12687;SDS011;6408;59.388;17.798;2022-11-21T00:50:32;5.73;;;3.47;;
12687;SDS011;6408;59.388;17.798;2022-11-21T00:52:59;5.30;;;3.90;;
12687;SDS011;6408;59.388;17.798;2022-11-21T00:55:28;5.23;;;4.13;;
12687;SDS011;6408;59.388;17.798;2022-11-21T00:57:55;7.17;;;4.47;;
12687;SDS011;6408;59.388;17.798;2022-11-21T01:00:22;7.07;;;5.17;;
12687;SDS011;6408;59.388;17.798;2022-11-21T01:02:49;7.03;;;4.83;;
12687;SDS011;6408;59.388;17.798;2022-11-21T01:05:16;10.00;;;6.27;;
12687;SDS011;6408;59.388;17.798;2022-11-21T01:07:43;10.17;;;6.77;;
12687;SDS011;6408;59.388;17.798;2022-11-21T01:10:10;9.67;;;6.47;;
12687;SDS011;6408;59.388;17.798;2022-11-21T01:12:39;24.67;;;6.87;;
12687;SDS011;6408;59.388;17.798;2022-11-21T01:15:06;9.23;;;6.37;;
12687;SDS011;6408;59.388;17.798;2022-11-21T01:17:34;10.53;;;6.53;;
12687;SDS011;6408;59.388;17.798;2022-11-21T01:20:01;10.93;;;6.90;;
12687;SDS011;6408;59.388;17.798;2022-11-21T01:22:29;8.60;;;6.07;;
12687;SDS011;6408;59.388;17.798;2022-11-21T01:24:56;11.60;;;6.47;;
12687;SDS011;6408;59.388;17.798;2022-11-21T01:27:23;10.03;;;7.13;;
12687;SDS011;6408;59.388;17.798;2022-11-21T01:29:52;9.83;;;6.30;;
12687;SDS011;6408;59.388;17.798;2022-11-21T01:32:19;8.83;;;6.53;;
12687;SDS011;6408;59.388;17.798;2022-11-21T01:34:46;10.13;;;7.43;;
12687;SDS011;6408;59.388;17.798;2022-11-21T01:37:13;12.77;;;7.50;;
12687;SDS011;6408;59.388;17.798;2022-11-21T01:39:40;14.80;;;6.97;;
12687;SDS011;6408;59.388;17.798;2022-11-21T01:42:07;11.03;;;6.60;;
12687;SDS011;6408;59.388;17.798;2022-11-21T01:44:45;12.70;;;7.03;;
12687;SDS011;6408;59.388;17.798;2022-11-21T01:47:15;9.43;;;6.67;;
12687;SDS011;6408;59.388;17.798;2022-11-21T01:49:43;13.77;;;6.80;;
12687;SDS011;6408;59.388;17.798;2022-11-21T01:52:12;9.53;;;6.67;;
12687;SDS011;6408;59.388;17.798;2022-11-21T01:54:43;7.27;;;5.53;;
12687;SDS011;6408;59.388;17.798;2022-11-21T01:57:14;9.40;;;6.50;;
12687;SDS011;6408;59.388;17.798;2022-11-21T01:59:47;8.10;;;5.70;;
12687;SDS011;6408;59.388;17.798;2022-11-21T02:02:22;7.87;;;5.80;;
12687;SDS011;6408;59.388;17.798;2022-11-21T02:04:50;11.07;;;6.80;;
12687;SDS011;6408;59.388;17.798;2022-11-21T02:07:19;7.47;;;5.40;;
12687;SDS011;6408;59.388;17.798;2022-11-21T02:09:50;9.43;;;5.83;;
12687;SDS011;6408;59.388;17.798;2022-11-21T02:12:20;8.23;;;5.93;;
12687;SDS011;6408;59.388;17.798;2022-11-21T02:14:50;8.73;;;5.40;;
12687;SDS011;6408;59.388;17.798;2022-11-21T02:17:20;7.63;;;5.60;;
12687;SDS011;6408;59.388;17.798;2022-11-21T02:19:49;7.73;;;5.60;;
12687;SDS011;6408;59.388;17.798;2022-11-21T02:22:22;7.10;;;5.27;;
12687;SDS011;6408;59.388;17.798;2022-11-21T02:25:04;8.40;;;5.57;;
12687;SDS011;6408;59.388;17.798;2022-11-21T02:27:32;9.50;;;5.83;;
12687;SDS011;6408;59.388;17.798;2022-11-21T02:30:00;9.23;;;6.07;;
12687;SDS011;6408;59.388;17.798;2022-11-21T02:32:31;8.23;;;4.47;;
12687;SDS011;6408;59.388;17.798;2022-11-21T02:35:00;8.57;;;6.00;;
12687;SDS011;6408;59.388;17.798;2022-11-21T02:37:27;7.70;;;4.97;;
12687;SDS011;6408;59.388;17.798;2022-11-21T02:39:56;6.87;;;5.40;;
12687;SDS011;6408;59.388;17.798;2022-11-21T02:42:29;8.87;;;6.37;;
12687;SDS011;6408;59.388;17.798;2022-11-21T02:45:02;13.57;;;5.57;;
12687;SDS011;6408;59.388;17.798;2022-11-21T02:47:36;9.13;;;6.43;;
12687;SDS011;6408;59.388;17.798;2022-11-21T02:50:08;8.47;;;5.90;;
12687;SDS011;6408;59.388;17.798;2022-11-21T02:52:38;9.03;;;4.87;;
12687;SDS011;6408;59.388;17.798;2022-11-21T02:55:05;9.47;;;6.27;;
12687;SDS011;6408;59.388;17.798;2022-11-21T02:57:34;7.33;;;5.50;;
12687;SDS011;6408;59.388;17.798;2022-11-21T03:00:02;9.27;;;6.10;;
12687;SDS011;6408;59.388;17.798;2022-11-21T03:02:29;11.33;;;5.63;;
12687;SDS011;6408;59.388;17.798;2022-11-21T03:04:57;7.43;;;5.70;;
12687;SDS011;6408;59.388;17.798;2022-11-21T03:07:24;9.63;;;6.37;;
12687;SDS011;6408;59.388;17.798;2022-11-21T03:09:51;7.97;;;5.83;;
12687;SDS011;6408;59.388;17.798;2022-11-21T03:12:18;8.70;;;5.60;;
12687;SDS011;6408;59.388;17.798;2022-11-21T03:14:46;8.17;;;5.97;;
12687;SDS011;6408;59.388;17.798;2022-11-21T03:17:14;9.60;;;6.30;;
12687;SDS011;6408;59.388;17.798;2022-11-21T03:19:41;9.63;;;6.20;;
12687;SDS011;6408;59.388;17.798;2022-11-21T03:22:08;10.07;;;5.40;;
12687;SDS011;6408;59.388;17.798;2022-11-21T03:24:35;6.97;;;4.50;;
12687;SDS011;6408;59.388;17.798;2022-11-21T03:27:02;8.93;;;5.30;;
12687;SDS011;6408;59.388;17.798;2022-11-21T03:29:29;9.40;;;6.57;;
12687;SDS011;6408;59.388;17.798;2022-11-21T03:31:58;11.23;;;5.70;;
12687;SDS011;6408;59.388;17.798;2022-11-21T03:34:25;7.57;;;5.43;;
12687;SDS011;6408;59.388;17.798;2022-11-21T03:36:52;8.63;;;5.67;;
12687;SDS011;6408;59.388;17.798;2022-11-21T03:39:20;8.03;;;5.60;;
12687;SDS011;6408;59.388;17.798;2022-11-21T03:41:47;6.80;;;4.90;;
12687;SDS011;6408;59.388;17.798;2022-11-21T03:44:14;9.27;;;6.37;;
12687;SDS011;6408;59.388;17.798;2022-11-21T03:46:41;9.73;;;5.20;;
12687;SDS011;6408;59.388;17.798;2022-11-21T03:49:12;9.10;;;6.23;;
12687;SDS011;6408;59.388;17.798;2022-11-21T03:51:41;9.83;;;6.13;;
12687;SDS011;6408;59.388;17.798;2022-11-21T03:54:08;7.73;;;5.63;;
12687;SDS011;6408;59.388;17.798;2022-11-21T03:56:36;12.03;;;6.30;;
12687;SDS011;6408;59.388;17.798;2022-11-21T03:59:05;8.30;;;5.60;;
12687;SDS011;6408;59.388;17.798;2022-11-21T04:01:32;9.43;;;5.50;;
12687;SDS011;6408;59.388;17.798;2022-11-21T04:03:59;8.27;;;5.43;;
12687;SDS011;6408;59.388;17.798;2022-11-21T04:06:28;10.33;;;6.20;;
12687;SDS011;6408;59.388;17.798;2022-11-21T04:08:55;10.10;;;6.53;;
12687;SDS011;6408;59.388;17.798;2022-11-21T04:11:23;8.73;;;5.63;;
12687;SDS011;6408;59.388;17.798;2022-11-21T04:13:50;8.87;;;6.07;;
12687;SDS011;6408;59.388;17.798;2022-11-21T04:16:17;7.97;;;4.97;;
12687;SDS011;6408;59.388;17.798;2022-11-21T04:18:44;9.07;;;5.73;;
12687;SDS011;6408;59.388;17.798;2022-11-21T04:21:12;7.60;;;5.37;;
12687;SDS011;6408;59.388;17.798;2022-11-21T04:23:40;8.87;;;5.67;;
12687;SDS011;6408;59.388;17.798;2022-11-21T04:26:08;7.17;;;5.37;;
12687;SDS011;6408;59.388;17.798;2022-11-21T04:28:35;9.57;;;5.70;;
12687;SDS011;6408;59.388;17.798;2022-11-21T04:31:03;9.40;;;5.43;;
12687;SDS011;6408;59.388;17.798;2022-11-21T04:33:30;7.97;;;5.37;;
12687;SDS011;6408;59.388;17.798;2022-11-21T04:35:58;7.43;;;5.50;;
12687;SDS011;6408;59.388;17.798;2022-11-21T04:38:25;8.20;;;4.97;;
12687;SDS011;6408;59.388;17.798;2022-11-21T04:40:54;6.63;;;5.00;;
12687;SDS011;6408;59.388;17.798;2022-11-21T04:43:21;7.33;;;5.17;;
12687;SDS011;6408;59.388;17.798;2022-11-21T04:45:48;7.90;;;5.80;;
12687;SDS011;6408;59.388;17.798;2022-11-21T04:48:15;7.63;;;5.37;;
12687;SDS011;6408;59.388;17.798;2022-11-21T04:50:42;6.93;;;4.87;;
12687;SDS011;6408;59.388;17.798;2022-11-21T04:53:10;9.83;;;5.27;;
12687;SDS011;6408;59.388;17.798;2022-11-21T04:55:37;7.20;;;4.77;;
12687;SDS011;6408;59.388;17.798;2022-11-21T04:58:06;5.67;;;4.17;;
12687;SDS011;6408;59.388;17.798;2022-11-21T05:00:33;6.27;;;4.63;;
12687;SDS011;6408;59.388;17.798;2022-11-21T05:03:01;7.07;;;4.90;;
12687;SDS011;6408;59.388;17.798;2022-11-21T05:05:29;6.37;;;4.73;;
12687;SDS011;6408;59.388;17.798;2022-11-21T05:07:56;6.60;;;5.00;;
12687;SDS011;6408;59.388;17.798;2022-11-21T05:10:23;6.90;;;5.00;;
12687;SDS011;6408;59.388;17.798;2022-11-21T05:12:55;6.60;;;4.90;;
12687;SDS011;6408;59.388;17.798;2022-11-21T05:15:41;8.57;;;5.03;;
12687;SDS011;6408;59.388;17.798;2022-11-21T05:18:08;8.57;;;5.10;;
12687;SDS011;6408;59.388;17.798;2022-11-21T05:20:36;8.00;;;5.20;;
12687;SDS011;6408;59.388;17.798;2022-11-21T05:23:03;8.30;;;5.20;;
12687;SDS011;6408;59.388;17.798;2022-11-21T05:25:30;7.53;;;4.83;;
12687;SDS011;6408;59.388;17.798;2022-11-21T05:27:57;7.73;;;4.80;;
12687;SDS011;6408;59.388;17.798;2022-11-21T05:30:24;7.53;;;4.77;;
12687;SDS011;6408;59.388;17.798;2022-11-21T05:32:52;8.17;;;5.23;;
12687;SDS011;6408;59.388;17.798;2022-11-21T05:35:20;8.40;;;5.00;;
12687;SDS011;6408;59.388;17.798;2022-11-21T05:37:47;7.33;;;4.73;;
12687;SDS011;6408;59.388;17.798;2022-11-21T05:40:14;8.97;;;5.37;;
12687;SDS011;6408;59.388;17.798;2022-11-21T05:42:41;8.10;;;5.80;;
12687;SDS011;6408;59.388;17.798;2022-11-21T05:45:26;8.93;;;6.17;;
12687;SDS011;6408;59.388;17.798;2022-11-21T05:47:54;8.30;;;5.83;;
12687;SDS011;6408;59.388;17.798;2022-11-21T05:50:22;8.60;;;5.60;;
12687;SDS011;6408;59.388;17.798;2022-11-21T05:52:49;9.70;;;5.70;;
12687;SDS011;6408;59.388;17.798;2022-11-21T05:55:16;7.17;;;5.30;;
12687;SDS011;6408;59.388;17.798;2022-11-21T05:57:43;8.07;;;5.67;;
12687;SDS011;6408;59.388;17.798;2022-11-21T06:00:11;8.20;;;5.30;;
12687;SDS011;6408;59.388;17.798;2022-11-21T06:02:39;7.20;;;5.77;;
12687;SDS011;6408;59.388;17.798;2022-11-21T06:05:25;7.70;;;5.67;;
12687;SDS011;6408;59.388;17.798;2022-11-21T06:07:53;9.17;;;6.23;;
12687;SDS011;6408;59.388;17.798;2022-11-21T06:10:21;8.43;;;5.40;;
12687;SDS011;6408;59.388;17.798;2022-11-21T06:12:48;7.60;;;5.53;;
12687;SDS011;6408;59.388;17.798;2022-11-21T06:15:15;7.97;;;5.40;;
12687;SDS011;6408;59.388;17.798;2022-11-21T06:17:42;10.50;;;6.70;;
12687;SDS011;6408;59.388;17.798;2022-11-21T06:20:10;7.83;;;6.03;;
12687;SDS011;6408;59.388;17.798;2022-11-21T06:22:38;8.37;;;6.40;;
12687;SDS011;6408;59.388;17.798;2022-11-21T06:25:05;9.33;;;6.37;;
12687;SDS011;6408;59.388;17.798;2022-11-21T06:27:33;9.90;;;6.47;;
12687;SDS011;6408;59.388;17.798;2022-11-21T06:30:00;7.73;;;6.07;;
12687;SDS011;6408;59.388;17.798;2022-11-21T06:32:27;9.37;;;6.70;;
12687;SDS011;6408;59.388;17.798;2022-11-21T06:34:54;8.40;;;6.00;;
12687;SDS011;6408;59.388;17.798;2022-11-21T06:37:21;10.87;;;7.60;;
12687;SDS011;6408;59.388;17.798;2022-11-21T06:39:50;14.13;;;7.33;;
12687;SDS011;6408;59.388;17.798;2022-11-21T06:42:17;12.67;;;7.30;;
12687;SDS011;6408;59.388;17.798;2022-11-21T06:44:44;9.23;;;6.73;;
12687;SDS011;6408;59.388;17.798;2022-11-21T06:47:11;10.60;;;7.03;;
12687;SDS011;6408;59.388;17.798;2022-11-21T06:49:38;10.23;;;7.40;;
12687;SDS011;6408;59.388;17.798;2022-11-21T06:52:06;10.27;;;7.20;;
12687;SDS011;6408;59.388;17.798;2022-11-21T06:54:33;12.90;;;8.10;;
12687;SDS011;6408;59.388;17.798;2022-11-21T06:57:02;14.80;;;7.87;;
12687;SDS011;6408;59.388;17.798;2022-11-21T06:59:29;11.33;;;7.53;;
12687;SDS011;6408;59.388;17.798;2022-11-21T07:01:56;10.93;;;7.17;;
12687;SDS011;6408;59.388;17.798;2022-11-21T07:04:23;9.60;;;6.80;;
12687;SDS011;6408;59.388;17.798;2022-11-21T07:06:50;8.87;;;5.37;;
12687;SDS011;6408;59.388;17.798;2022-11-21T07:09:17;9.30;;;6.23;;
12687;SDS011;6408;59.388;17.798;2022-11-21T07:11:44;10.37;;;5.73;;
12687;SDS011;6408;59.388;17.798;2022-11-21T07:14:13;8.80;;;5.57;;
12687;SDS011;6408;59.388;17.798;2022-11-21T07:16:39;8.17;;;5.60;;
12687;SDS011;6408;59.388;17.798;2022-11-21T07:19:06;9.83;;;5.47;;
12687;SDS011;6408;59.388;17.798;2022-11-21T07:21:33;6.97;;;5.37;;
12687;SDS011;6408;59.388;17.798;2022-11-21T07:24:00;9.70;;;5.70;;
12687;SDS011;6408;59.388;17.798;2022-11-21T07:26:27;7.13;;;5.80;;
12687;SDS011;6408;59.388;17.798;2022-11-21T07:28:54;8.83;;;5.73;;
12687;SDS011;6408;59.388;17.798;2022-11-21T07:31:23;7.93;;;5.27;;
12687;SDS011;6408;59.388;17.798;2022-11-21T07:33:50;7.87;;;5.23;;
12687;SDS011;6408;59.388;17.798;2022-11-21T07:36:17;6.73;;;5.37;;
12687;SDS011;6408;59.388;17.798;2022-11-21T07:38:45;10.50;;;7.00;;
12687;SDS011;6408;59.388;17.798;2022-11-21T07:41:12;10.60;;;6.47;;
12687;SDS011;6408;59.388;17.798;2022-11-21T07:43:39;11.97;;;7.10;;
12687;SDS011;6408;59.388;17.798;2022-11-21T07:46:06;8.77;;;6.50;;
12687;SDS011;6408;59.388;17.798;2022-11-21T07:48:35;10.57;;;6.67;;
12687;SDS011;6408;59.388;17.798;2022-11-21T07:51:03;10.83;;;7.20;;
12687;SDS011;6408;59.388;17.798;2022-11-21T07:53:30;10.00;;;6.60;;
12687;SDS011;6408;59.388;17.798;2022-11-21T07:55:58;8.00;;;5.90;;
12687;SDS011;6408;59.388;17.798;2022-11-21T07:58:25;7.73;;;5.80;;
12687;SDS011;6408;59.388;17.798;2022-11-21T08:00:53;7.93;;;5.57;;
12687;SDS011;6408;59.388;17.798;2022-11-21T08:03:20;7.43;;;5.20;;
12687;SDS011;6408;59.388;17.798;2022-11-21T08:05:50;7.87;;;5.20;;
12687;SDS011;6408;59.388;17.798;2022-11-21T08:08:18;6.03;;;4.87;;
12687;SDS011;6408;59.388;17.798;2022-11-21T08:10:45;11.70;;;5.00;;
12687;SDS011;6408;59.388;17.798;2022-11-21T08:13:12;7.10;;;4.63;;
12687;SDS011;6408;59.388;17.798;2022-11-21T08:15:39;5.10;;;3.53;;
12687;SDS011;6408;59.388;17.798;2022-11-21T08:18:07;4.67;;;3.70;;
12687;SDS011;6408;59.388;17.798;2022-11-21T08:20:35;5.63;;;3.67;;
12687;SDS011;6408;59.388;17.798;2022-11-21T08:23:04;4.77;;;3.30;;
12687;SDS011;6408;59.388;17.798;2022-11-21T08:25:32;4.53;;;3.30;;
12687;SDS011;6408;59.388;17.798;2022-11-21T08:28:00;3.77;;;2.53;;
12687;SDS011;6408;59.388;17.798;2022-11-21T08:30:28;3.20;;;2.57;;
12687;SDS011;6408;59.388;17.798;2022-11-21T08:32:56;5.73;;;2.43;;
12687;SDS011;6408;59.388;17.798;2022-11-21T08:35:23;2.50;;;2.30;;
12687;SDS011;6408;59.388;17.798;2022-11-21T08:37:53;3.93;;;2.90;;
12687;SDS011;6408;59.388;17.798;2022-11-21T08:40:23;2.90;;;2.53;;
12687;SDS011;6408;59.388;17.798;2022-11-21T08:42:54;2.77;;;2.13;;
12687;SDS011;6408;59.388;17.798;2022-11-21T08:45:22;3.17;;;2.70;;
12687;SDS011;6408;59.388;17.798;2022-11-21T08:47:49;3.77;;;2.27;;
12687;SDS011;6408;59.388;17.798;2022-11-21T08:50:16;3.63;;;2.57;;
12687;SDS011;6408;59.388;17.798;2022-11-21T08:52:43;3.13;;;2.60;;
12687;SDS011;6408;59.388;17.798;2022-11-21T08:55:10;2.90;;;2.47;;
12687;SDS011;6408;59.388;17.798;2022-11-21T08:57:39;2.53;;;2.10;;
12687;SDS011;6408;59.388;17.798;2022-11-21T09:00:08;2.57;;;2.17;;
12687;SDS011;6408;59.388;17.798;2022-11-21T09:02:36;3.77;;;2.40;;
12687;SDS011;6408;59.388;17.798;2022-11-21T09:05:04;5.00;;;1.80;;
12687;SDS011;6408;59.388;17.798;2022-11-21T09:07:32;1.60;;;1.47;;
12687;SDS011;6408;59.388;17.798;2022-11-21T09:09:59;1.30;;;1.20;;
12687;SDS011;6408;59.388;17.798;2022-11-21T09:12:26;2.20;;;1.53;;
12687;SDS011;6408;59.388;17.798;2022-11-21T09:14:54;1.90;;;1.70;;
12687;SDS011;6408;59.388;17.798;2022-11-21T09:17:39;3.10;;;2.50;;
12687;SDS011;6408;59.388;17.798;2022-11-21T09:20:23;4.23;;;2.70;;
12687;SDS011;6408;59.388;17.798;2022-11-21T09:22:50;2.60;;;2.00;;
12687;SDS011;6408;59.388;17.798;2022-11-21T09:25:17;4.10;;;2.67;;
12687;SDS011;6408;59.388;17.798;2022-11-21T09:27:44;4.57;;;2.63;;
12687;SDS011;6408;59.388;17.798;2022-11-21T09:32:41;4.60;;;3.20;;
12687;SDS011;6408;59.388;17.798;2022-11-21T09:35:08;3.93;;;2.73;;
12687;SDS011;6408;59.388;17.798;2022-11-21T09:37:35;3.33;;;2.47;;
12687;SDS011;6408;59.388;17.798;2022-11-21T09:40:03;6.63;;;3.50;;
12687;SDS011;6408;59.388;17.798;2022-11-21T09:42:46;4.83;;;3.37;;
12687;SDS011;6408;59.388;17.798;2022-11-21T09:45:27;5.07;;;3.13;;
12687;SDS011;6408;59.388;17.798;2022-11-21T09:48:00;3.70;;;2.87;;
12687;SDS011;6408;59.388;17.798;2022-11-21T09:50:30;4.60;;;3.33;;
12687;SDS011;6408;59.388;17.798;2022-11-21T09:53:02;5.87;;;3.83;;
12687;SDS011;6408;59.388;17.798;2022-11-21T09:55:35;5.80;;;4.07;;
12687;SDS011;6408;59.388;17.798;2022-11-21T09:58:10;5.20;;;2.73;;
12687;SDS011;6408;59.388;17.798;2022-11-21T10:00:50;4.57;;;3.23;;
12687;SDS011;6408;59.388;17.798;2022-11-21T10:03:17;3.03;;;2.67;;
12687;SDS011;6408;59.388;17.798;2022-11-21T10:05:48;4.67;;;3.37;;
12687;SDS011;6408;59.388;17.798;2022-11-21T10:08:22;4.83;;;3.60;;
12687;SDS011;6408;59.388;17.798;2022-11-21T10:10:57;5.80;;;3.33;;
12687;SDS011;6408;59.388;17.798;2022-11-21T10:13:35;4.10;;;2.83;;
12687;SDS011;6408;59.388;17.798;2022-11-21T10:16:15;4.53;;;2.70;;
12687;SDS011;6408;59.388;17.798;2022-11-21T10:18:56;5.57;;;2.60;;
12687;SDS011;6408;59.388;17.798;2022-11-21T10:24:37;3.57;;;2.77;;
12687;SDS011;6408;59.388;17.798;2022-11-21T10:27:10;3.90;;;2.60;;
12687;SDS011;6408;59.388;17.798;2022-11-21T10:29:40;5.07;;;2.53;;
12687;SDS011;6408;59.388;17.798;2022-11-21T10:32:17;4.47;;;2.57;;
12687;SDS011;6408;59.388;17.798;2022-11-21T10:34:49;4.07;;;2.77;;
12687;SDS011;6408;59.388;17.798;2022-11-21T10:37:22;3.70;;;2.90;;
12687;SDS011;6408;59.388;17.798;2022-11-21T10:39:55;3.90;;;2.67;;
12687;SDS011;6408;59.388;17.798;2022-11-21T10:42:29;5.00;;;3.23;;
12687;SDS011;6408;59.388;17.798;2022-11-21T10:45:01;5.33;;;3.50;;
12687;SDS011;6408;59.388;17.798;2022-11-21T10:47:42;4.53;;;3.13;;
12687;SDS011;6408;59.388;17.798;2022-11-21T10:50:24;3.97;;;2.80;;
12687;SDS011;6408;59.388;17.798;2022-11-21T10:53:04;3.23;;;2.30;;
12687;SDS011;6408;59.388;17.798;2022-11-21T10:55:59;4.87;;;3.20;;
12687;SDS011;6408;59.388;17.798;2022-11-21T10:58:35;4.90;;;3.70;;
12687;SDS011;6408;59.388;17.798;2022-11-21T11:01:16;5.73;;;3.47;;
12687;SDS011;6408;59.388;17.798;2022-11-21T11:03:59;4.77;;;3.37;;
12687;SDS011;6408;59.388;17.798;2022-11-21T11:06:31;4.80;;;3.40;;
12687;SDS011;6408;59.388;17.798;2022-11-21T11:08:58;4.70;;;3.67;;
12687;SDS011;6408;59.388;17.798;2022-11-21T11:11:26;5.50;;;4.03;;
12687;SDS011;6408;59.388;17.798;2022-11-21T11:13:56;6.83;;;3.90;;
12687;SDS011;6408;59.388;17.798;2022-11-21T11:16:26;5.03;;;3.50;;
12687;SDS011;6408;59.388;17.798;2022-11-21T11:18:56;5.13;;;3.80;;
12687;SDS011;6408;59.388;17.798;2022-11-21T11:21:26;4.60;;;3.70;;
12687;SDS011;6408;59.388;17.798;2022-11-21T11:24:04;6.00;;;3.30;;
12687;SDS011;6408;59.388;17.798;2022-11-21T11:26:48;4.80;;;2.77;;
12687;SDS011;6408;59.388;17.798;2022-11-21T11:29:17;6.13;;;3.50;;
12687;SDS011;6408;59.388;17.798;2022-11-21T11:31:48;4.27;;;2.77;;
12687;SDS011;6408;59.388;17.798;2022-11-21T11:34:21;3.80;;;3.10;;
12687;SDS011;6408;59.388;17.798;2022-11-21T11:36:59;4.13;;;2.90;;
12687;SDS011;6408;59.388;17.798;2022-11-21T11:39:37;3.57;;;2.30;;
12687;SDS011;6408;59.388;17.798;2022-11-21T11:42:18;2.77;;;2.10;;
12687;SDS011;6408;59.388;17.798;2022-11-21T11:45:25;2.83;;;2.30;;
12687;SDS011;6408;59.388;17.798;2022-11-21T11:48:17;3.00;;;2.13;;
12687;SDS011;6408;59.388;17.798;2022-11-21T11:50:47;3.70;;;2.13;;
12687;SDS011;6408;59.388;17.798;2022-11-21T11:53:17;3.10;;;2.40;;
12687;SDS011;6408;59.388;17.798;2022-11-21T11:55:47;5.57;;;2.00;;
12687;SDS011;6408;59.388;17.798;2022-11-21T11:58:20;2.83;;;2.00;;
12687;SDS011;6408;59.388;17.798;2022-11-21T12:00:53;2.20;;;1.70;;
12687;SDS011;6408;59.388;17.798;2022-11-21T12:03:27;3.47;;;1.53;;
12687;SDS011;6408;59.388;17.798;2022-11-21T12:06:02;2.50;;;1.60;;
12687;SDS011;6408;59.388;17.798;2022-11-21T12:08:33;1.60;;;1.40;;
12687;SDS011;6408;59.388;17.798;2022-11-21T12:11:13;1.63;;;1.13;;
12687;SDS011;6408;59.388;17.798;2022-11-21T12:14:08;2.17;;;1.30;;
12687;SDS011;6408;59.388;17.798;2022-11-21T12:17:02;1.93;;;1.57;;
12687;SDS011;6408;59.388;17.798;2022-11-21T12:19:32;2.57;;;1.87;;
12687;SDS011;6408;59.388;17.798;2022-11-21T12:22:02;2.47;;;2.13;;
12687;SDS011;6408;59.388;17.798;2022-11-21T12:24:30;3.17;;;2.33;;
12687;SDS011;6408;59.388;17.798;2022-11-21T12:27:00;3.73;;;2.77;;
12687;SDS011;6408;59.388;17.798;2022-11-21T12:29:39;2.67;;;2.40;;
12687;SDS011;6408;59.388;17.798;2022-11-21T12:32:20;3.37;;;2.60;;
12687;SDS011;6408;59.388;17.798;2022-11-21T12:35:03;3.07;;;2.50;;
12687;SDS011;6408;59.388;17.798;2022-11-21T12:37:49;3.40;;;2.10;;
12687;SDS011;6408;59.388;17.798;2022-11-21T12:40:28;2.77;;;2.40;;
12687;SDS011;6408;59.388;17.798;2022-11-21T12:43:16;2.30;;;2.00;;
12687;SDS011;6408;59.388;17.798;2022-11-21T12:45:49;2.00;;;1.80;;
12687;SDS011;6408;59.388;17.798;2022-11-21T12:48:29;2.30;;;2.10;;
12687;SDS011;6408;59.388;17.798;2022-11-21T12:51:37;2.10;;;1.90;;
12687;SDS011;6408;59.388;17.798;2022-11-21T12:54:39;2.00;;;1.80;;
12687;SDS011;6408;59.388;17.798;2022-11-21T12:57:17;1.90;;;1.60;;
12687;SDS011;6408;59.388;17.798;2022-11-21T12:59:47;2.53;;;2.00;;
12687;SDS011;6408;59.388;17.798;2022-11-21T13:02:23;2.73;;;2.00;;
12687;SDS011;6408;59.388;17.798;2022-11-21T13:04:57;3.03;;;2.03;;
12687;SDS011;6408;59.388;17.798;2022-11-21T13:07:26;1.80;;;1.67;;
12687;SDS011;6408;59.388;17.798;2022-11-21T13:09:57;2.10;;;1.70;;
12687;SDS011;6408;59.388;17.798;2022-11-21T13:12:29;2.37;;;1.80;;
12687;SDS011;6408;59.388;17.798;2022-11-21T13:15:03;2.97;;;1.80;;
12687;SDS011;6408;59.388;17.798;2022-11-21T13:17:43;2.20;;;1.70;;
12687;SDS011;6408;59.388;17.798;2022-11-21T13:20:17;2.70;;;1.90;;
12687;SDS011;6408;59.388;17.798;2022-11-21T13:22:56;1.70;;;1.50;;
12687;SDS011;6408;59.388;17.798;2022-11-21T13:25:35;2.10;;;1.60;;
12687;SDS011;6408;59.388;17.798;2022-11-21T13:28:29;2.77;;;1.80;;
12687;SDS011;6408;59.388;17.798;2022-11-21T13:31:24;2.60;;;2.17;;
12687;SDS011;6408;59.388;17.798;2022-11-21T13:33:53;3.83;;;2.00;;
12687;SDS011;6408;59.388;17.798;2022-11-21T13:36:34;2.73;;;1.97;;
12687;SDS011;6408;59.388;17.798;2022-11-21T13:42:03;2.90;;;1.90;;
12687;SDS011;6408;59.388;17.798;2022-11-21T13:44:49;2.30;;;2.00;;
12687;SDS011;6408;59.388;17.798;2022-11-21T13:50:12;2.30;;;2.00;;
12687;SDS011;6408;59.388;17.798;2022-11-21T13:52:48;2.40;;;1.90;;
12687;SDS011;6408;59.388;17.798;2022-11-21T13:55:27;2.23;;;2.00;;
12687;SDS011;6408;59.388;17.798;2022-11-21T13:58:07;2.50;;;2.10;;
12687;SDS011;6408;59.388;17.798;2022-11-21T14:00:47;2.60;;;2.10;;
12687;SDS011;6408;59.388;17.798;2022-11-21T14:06:46;2.83;;;2.30;;
12687;SDS011;6408;59.388;17.798;2022-11-21T14:09:23;2.67;;;2.13;;
12687;SDS011;6408;59.388;17.798;2022-11-21T14:11:53;2.90;;;2.60;;
12687;SDS011;6408;59.388;17.798;2022-11-21T14:14:26;3.23;;;2.50;;
12687;SDS011;6408;59.388;17.798;2022-11-21T14:17:10;3.33;;;2.67;;
12687;SDS011;6408;59.388;17.798;2022-11-21T14:19:47;3.53;;;2.73;;
12687;SDS011;6408;59.388;17.798;2022-11-21T14:22:15;4.33;;;2.87;;
12687;SDS011;6408;59.388;17.798;2022-11-21T14:24:50;4.57;;;2.83;;
12687;SDS011;6408;59.388;17.798;2022-11-21T14:27:21;5.90;;;2.67;;
12687;SDS011;6408;59.388;17.798;2022-11-21T14:29:54;3.73;;;2.53;;
12687;SDS011;6408;59.388;17.798;2022-11-21T14:32:24;3.00;;;2.40;;
12687;SDS011;6408;59.388;17.798;2022-11-21T14:34:52;3.87;;;2.80;;
12687;SDS011;6408;59.388;17.798;2022-11-21T14:37:32;2.93;;;2.53;;
12687;SDS011;6408;59.388;17.798;2022-11-21T14:40:00;2.93;;;2.53;;
12687;SDS011;6408;59.388;17.798;2022-11-21T14:42:33;3.27;;;2.63;;
12687;SDS011;6408;59.388;17.798;2022-11-21T14:45:07;4.37;;;2.90;;
12687;SDS011;6408;59.388;17.798;2022-11-21T14:47:45;3.17;;;2.60;;
12687;SDS011;6408;59.388;17.798;2022-11-21T14:50:23;3.53;;;2.60;;
12687;SDS011;6408;59.388;17.798;2022-11-21T14:52:52;3.37;;;2.57;;
12687;SDS011;6408;59.388;17.798;2022-11-21T14:55:23;3.77;;;2.73;;
12687;SDS011;6408;59.388;17.798;2022-11-21T14:57:52;3.30;;;2.87;;
12687;SDS011;6408;59.388;17.798;2022-11-21T15:00:22;3.17;;;2.73;;
12687;SDS011;6408;59.388;17.798;2022-11-21T15:02:52;4.50;;;3.43;;
12687;SDS011;6408;59.388;17.798;2022-11-21T15:05:20;3.73;;;2.77;;
12687;SDS011;6408;59.388;17.798;2022-11-21T15:07:48;3.43;;;2.90;;
12687;SDS011;6408;59.388;17.798;2022-11-21T15:10:15;3.33;;;2.63;;
12687;SDS011;6408;59.388;17.798;2022-11-21T15:12:46;4.40;;;2.60;;
12687;SDS011;6408;59.388;17.798;2022-11-21T15:15:22;4.17;;;3.07;;
12687;SDS011;6408;59.388;17.798;2022-11-21T15:17:56;3.83;;;3.00;;
12687;SDS011;6408;59.388;17.798;2022-11-21T15:20:25;4.17;;;2.90;;
12687;SDS011;6408;59.388;17.798;2022-11-21T15:22:54;4.17;;;3.20;;